Time;durP1;ratioP1;P1;durP2;ratioP2;P2;SDS_P1;SDS_P2;PMS_P1;PMS_P2;Temp;Humidity;BMP_temperature;BMP_pressure;BME280_temperature;BME280_humidity;BME280_pressure;Samples;Min_cycle;Max_cycle;Signal;HPM_P1;HPM_P2
2022/06/30 00:01:44;;;;;;;7.10;5.60;;;24.70;53.10;;;;;;5093361;28;20186;-47
2022/06/30 00:04:10;;;;;;;6.80;5.60;;;24.70;53.20;;;;;;5093125;28;20410;-47
2022/06/30 00:06:36;;;;;;;6.73;5.90;;;24.70;53.40;;;;;;5092171;28;20533;-48
2022/06/30 00:09:02;;;;;;;7.20;5.57;;;24.60;53.30;;;;;;5093046;28;20494;-47
2022/06/30 00:11:28;;;;;;;7.27;5.20;;;24.70;53.30;;;;;;5093012;28;20512;-47
2022/06/30 00:13:54;;;;;;;10.40;5.90;;;24.70;53.30;;;;;;5093025;28;20402;-48
2022/06/30 00:16:20;;;;;;;7.30;5.90;;;24.70;53.30;;;;;;5092785;28;20933;-49
2022/06/30 00:18:45;;;;;;;6.07;5.37;;;24.60;53.30;;;;;;5092907;28;20180;-47
2022/06/30 00:21:12;;;;;;;8.07;7.27;;;24.60;53.30;;;;;;5092964;28;20179;-47
2022/06/30 00:23:38;;;;;;;6.40;5.70;;;24.60;53.30;;;;;;5092683;28;20628;-48
2022/06/30 00:26:03;;;;;;;6.73;6.03;;;24.60;53.40;;;;;;5092329;28;20462;-48
2022/06/30 00:28:30;;;;;;;6.93;6.23;;;24.50;53.50;;;;;;5092816;28;20424;-48
2022/06/30 00:30:55;;;;;;;6.83;5.90;;;24.50;53.50;;;;;;5092795;28;20405;-48
2022/06/30 00:33:21;;;;;;;9.10;6.50;;;24.50;53.60;;;;;;5092943;28;20410;-47
2022/06/30 00:35:47;;;;;;;8.27;5.30;;;24.50;53.60;;;;;;5092430;28;20613;-47
2022/06/30 00:38:13;;;;;;;8.03;5.80;;;24.50;53.60;;;;;;5092524;28;20200;-45
2022/06/30 00:40:42;;;;;;;8.00;6.20;;;24.50;54.20;;;;;;5092656;28;20488;-46
2022/06/30 00:43:08;;;;;;;7.87;6.00;;;24.50;53.40;;;;;;5092780;28;20416;-48
2022/06/30 00:45:41;;;;;;;8.83;6.43;;;24.50;53.40;;;;;;5092153;28;20457;-48
2022/06/30 00:48:06;;;;;;;8.43;7.43;;;24.50;53.50;;;;;;5092500;28;20440;-48
2022/06/30 00:50:32;;;;;;;7.77;5.87;;;24.50;53.70;;;;;;5092495;28;20402;-48
2022/06/30 00:53:02;;;;;;;7.67;6.37;;;24.50;53.70;;;;;;5092394;28;20164;-47
2022/06/30 00:55:29;;;;;;;9.47;6.43;;;24.50;53.80;;;;;;5092546;28;20198;-47
2022/06/30 00:57:59;;;;;;;7.33;5.83;;;24.50;53.70;;;;;;5092265;28;20481;-48
2022/06/30 01:00:26;;;;;;;7.17;6.47;;;24.50;53.80;;;;;;5092369;28;20813;-47
2022/06/30 01:02:53;;;;;;;7.97;5.90;;;24.50;53.90;;;;;;5090944;28;20786;-48
2022/06/30 01:05:20;;;;;;;9.40;7.17;;;24.50;53.90;;;;;;5092023;28;20472;-48
2022/06/30 01:07:47;;;;;;;6.40;5.07;;;24.50;53.80;;;;;;5092023;28;20909;-48
2022/06/30 01:12:57;;;;;;;8.50;6.60;;;24.50;53.90;;;;;;5092507;28;20381;-48
2022/06/30 01:15:23;;;;;;;6.47;5.70;;;24.40;53.80;;;;;;5092316;28;20828;-47
2022/06/30 01:17:50;;;;;;;6.73;6.03;;;24.40;53.90;;;;;;5093228;28;20410;-49
2022/06/30 01:20:18;;;;;;;9.00;7.70;;;24.40;53.90;;;;;;5096440;28;20658;-48
2022/06/30 01:22:44;;;;;;;8.90;6.87;;;24.30;53.90;;;;;;5096502;28;20429;-48
2022/06/30 01:25:11;;;;;;;6.67;5.90;;;24.30;53.90;;;;;;5095919;28;20936;-48
2022/06/30 01:27:37;;;;;;;8.37;6.60;;;24.30;53.90;;;;;;5096227;28;20195;-48
2022/06/30 01:30:03;;;;;;;6.90;5.67;;;24.30;53.90;;;;;;5096488;28;20881;-48
2022/06/30 01:32:30;;;;;;;8.60;6.60;;;24.30;53.90;;;;;;5095987;28;20406;-48
2022/06/30 01:34:57;;;;;;;7.80;5.80;;;24.30;53.90;;;;;;5096198;28;20430;-48
2022/06/30 01:37:23;;;;;;;5.87;5.27;;;24.30;53.90;;;;;;5096014;28;20425;-47
2022/06/30 01:39:50;;;;;;;7.63;6.83;;;24.30;53.90;;;;;;5096161;28;20414;-47
2022/06/30 01:42:16;;;;;;;11.77;5.87;;;24.30;53.80;;;;;;5096002;28;20796;-50
2022/06/30 01:44:41;;;;;;;8.13;5.90;;;24.20;53.70;;;;;;5095886;28;20945;-48
2022/06/30 01:47:09;;;;;;;8.53;6.47;;;24.20;53.70;;;;;;5095920;28;20420;-46
2022/06/30 01:49:35;;;;;;;8.73;7.17;;;24.20;53.70;;;;;;5095874;28;20221;-48
2022/06/30 01:52:01;;;;;;;9.00;8.13;;;24.20;53.70;;;;;;5095825;28;20467;-48
2022/06/30 01:54:27;;;;;;;8.30;6.87;;;24.20;53.60;;;;;;5095705;28;20430;-48
2022/06/30 01:56:53;;;;;;;8.63;6.00;;;24.10;53.60;;;;;;5095490;28;20441;-48
2022/06/30 01:59:18;;;;;;;13.23;6.33;;;24.10;53.70;;;;;;5095684;28;20176;-48
2022/06/30 02:01:44;;;;;;;7.83;6.13;;;24.20;53.70;;;;;;5095415;28;20192;-48
2022/06/30 02:06:54;;;;;;;7.90;6.10;;;24.20;53.70;;;;;;5095339;28;20613;-46
2022/06/30 02:09:20;;;;;;;7.17;6.27;;;24.20;53.80;;;;;;5095440;28;20397;-48
2022/06/30 02:11:46;;;;;;;10.63;6.63;;;24.20;53.80;;;;;;5095453;28;20176;-48
2022/06/30 02:14:12;;;;;;;8.40;7.30;;;24.20;53.90;;;;;;5095640;28;20181;-48
2022/06/30 02:16:37;;;;;;;8.40;6.60;;;24.10;54.00;;;;;;5095386;28;20175;-47
2022/06/30 02:19:04;;;;;;;7.40;6.60;;;24.10;54.10;;;;;;5095293;28;20536;-47
2022/06/30 02:21:30;;;;;;;8.70;6.47;;;24.10;54.10;;;;;;5095311;28;20279;-47
2022/06/30 02:23:56;;;;;;;7.67;6.03;;;24.10;54.10;;;;;;5095275;28;20925;-47
2022/06/30 02:26:22;;;;;;;7.30;5.67;;;24.20;54.00;;;;;;5094932;28;20207;-48
2022/06/30 02:28:47;;;;;;;7.70;6.67;;;24.20;54.00;;;;;;5094761;28;20176;-48
2022/06/30 02:31:13;;;;;;;9.13;6.93;;;24.20;54.00;;;;;;5094885;28;20535;-48
2022/06/30 02:33:40;;;;;;;8.60;6.20;;;24.20;54.00;;;;;;5093766;28;20230;-49
2022/06/30 02:36:06;;;;;;;9.50;7.37;;;24.30;54.10;;;;;;5094653;28;20685;-48
2022/06/30 02:38:33;;;;;;;9.07;7.47;;;24.20;54.10;;;;;;5094951;28;20410;-48
2022/06/30 02:40:59;;;;;;;9.77;6.60;;;24.20;54.00;;;;;;5094834;28;20413;-48
2022/06/30 02:43:25;;;;;;;13.20;8.00;;;24.30;54.10;;;;;;5094749;28;20417;-48
2022/06/30 02:45:50;;;;;;;9.27;6.97;;;24.20;54.10;;;;;;5094350;28;20968;-47
2022/06/30 02:48:18;;;;;;;11.30;7.73;;;24.30;54.00;;;;;;5094739;28;20410;-47
2022/06/30 02:50:44;;;;;;;8.80;6.53;;;24.20;53.90;;;;;;5094616;28;20640;-48
2022/06/30 02:53:11;;;;;;;15.30;6.80;;;24.20;54.00;;;;;;5094644;28;20408;-48
2022/06/30 02:55:37;;;;;;;8.53;6.17;;;24.20;53.90;;;;;;5094319;28;20883;-48
2022/06/30 02:58:03;;;;;;;9.83;7.47;;;24.20;54.00;;;;;;5094451;28;20429;-49
2022/06/30 03:00:29;;;;;;;9.57;7.60;;;24.20;54.00;;;;;;5094496;28;20410;-48
2022/06/30 03:02:57;;;;;;;9.70;8.50;;;24.20;54.00;;;;;;5094525;28;20263;-48
2022/06/30 03:05:24;;;;;;;10.17;7.40;;;24.20;54.00;;;;;;5094221;28;20456;-47
2022/06/30 03:07:50;;;;;;;8.03;6.93;;;24.20;54.00;;;;;;5094240;28;20406;-49
2022/06/30 03:10:16;;;;;;;11.30;8.20;;;24.20;53.90;;;;;;5094177;28;20402;-49
2022/06/30 03:12:42;;;;;;;9.37;6.83;;;24.20;53.90;;;;;;5094150;28;20758;-48
2022/06/30 03:15:09;;;;;;;7.43;5.93;;;24.20;53.90;;;;;;5094690;28;20476;-48
2022/06/30 03:17:34;;;;;;;9.93;7.43;;;24.20;53.80;;;;;;5094107;28;20603;-50
2022/06/30 03:20:00;;;;;;;8.73;7.23;;;24.20;53.90;;;;;;5094238;28;20488;-50
2022/06/30 03:22:26;;;;;;;8.67;7.13;;;24.20;53.80;;;;;;5094664;28;20546;-48
2022/06/30 03:24:52;;;;;;;9.50;8.00;;;24.20;53.90;;;;;;5093989;28;20529;-46
2022/06/30 03:27:18;;;;;;;9.40;6.80;;;24.20;54.00;;;;;;5093979;28;20700;-50
2022/06/30 03:29:44;;;;;;;10.93;7.93;;;24.20;53.90;;;;;;5094596;28;20180;-50
2022/06/30 03:32:10;;;;;;;8.53;7.27;;;24.20;53.90;;;;;;5094064;28;21097;-50
2022/06/30 03:34:35;;;;;;;9.33;7.43;;;24.20;53.90;;;;;;5093818;28;20448;-51
2022/06/30 03:37:01;;;;;;;9.47;7.53;;;24.20;53.80;;;;;;5093973;28;20438;-48
2022/06/30 03:39:27;;;;;;;7.17;6.43;;;24.20;53.70;;;;;;5093975;28;20176;-49
2022/06/30 03:41:53;;;;;;;10.40;7.30;;;24.20;53.80;;;;;;5092564;28;20266;-48
2022/06/30 03:44:19;;;;;;;8.40;7.07;;;24.20;53.80;;;;;;5093623;28;20402;-47
2022/06/30 03:46:44;;;;;;;9.47;6.60;;;24.20;53.80;;;;;;5093371;28;20536;-48
2022/06/30 03:49:10;;;;;;;10.83;7.23;;;24.20;53.70;;;;;;5093767;28;20195;-48
2022/06/30 03:51:36;;;;;;;8.87;6.67;;;24.20;53.60;;;;;;5094069;28;20207;-48
2022/06/30 03:54:01;;;;;;;11.23;6.90;;;24.20;53.60;;;;;;5093389;28;20191;-48
2022/06/30 03:56:27;;;;;;;11.10;7.07;;;24.20;53.70;;;;;;5093032;28;20698;-48
2022/06/30 03:58:53;;;;;;;10.87;6.67;;;24.20;53.60;;;;;;5093622;28;20178;-48
2022/06/30 04:01:19;;;;;;;7.17;5.50;;;24.20;53.60;;;;;;5093795;28;20181;-48
2022/06/30 04:03:46;;;;;;;8.43;6.53;;;24.20;53.60;;;;;;5093382;28;20550;-48
2022/06/30 04:06:12;;;;;;;8.00;6.27;;;24.20;53.60;;;;;;5092863;28;20438;-48
2022/06/30 04:08:38;;;;;;;7.70;5.93;;;24.30;53.70;;;;;;5093291;28;20410;-48
2022/06/30 04:11:03;;;;;;;7.00;6.07;;;24.30;53.70;;;;;;5093102;28;20182;-47
2022/06/30 04:13:29;;;;;;;8.63;7.03;;;24.30;53.70;;;;;;5093009;28;20463;-48
2022/06/30 04:15:55;;;;;;;8.40;5.87;;;24.30;53.60;;;;;;5092869;28;20196;-48
2022/06/30 04:18:21;;;;;;;6.97;6.13;;;24.40;53.60;;;;;;5093251;28;20168;-47
2022/06/30 04:20:47;;;;;;;8.00;6.30;;;24.40;53.50;;;;;;5092970;28;20811;-48
2022/06/30 04:23:13;;;;;;;10.87;6.43;;;24.40;53.60;;;;;;5092963;28;20176;-50
2022/06/30 04:25:39;;;;;;;7.67;5.90;;;24.40;53.50;;;;;;5092656;28;20472;-48
2022/06/30 04:28:06;;;;;;;8.63;6.43;;;24.40;53.50;;;;;;5093056;28;20196;-47
2022/06/30 04:33:16;;;;;;;7.40;6.60;;;24.50;53.50;;;;;;5092936;28;20194;-48
2022/06/30 04:35:42;;;;;;;9.93;7.10;;;24.40;53.30;;;;;;5092364;28;20936;-49
2022/06/30 04:38:08;;;;;;;11.53;7.73;;;24.50;53.40;;;;;;5092724;28;20578;-48
2022/06/30 04:43:18;;;;;;;6.93;6.23;;;24.50;53.50;;;;;;5092679;28;20167;-48
2022/06/30 04:45:44;;;;;;;7.30;5.23;;;24.50;53.30;;;;;;5092413;28;20717;-48
2022/06/30 04:48:11;;;;;;;6.73;5.40;;;24.60;53.40;;;;;;5092678;28;20398;-49
2022/06/30 04:50:40;;;;;;;9.17;6.83;;;24.60;53.40;;;;;;5093130;28;20489;-48
2022/06/30 04:53:07;;;;;;;10.13;7.10;;;24.60;53.30;;;;;;5092701;28;20434;-48
2022/06/30 04:55:32;;;;;;;11.30;9.07;;;24.60;53.30;;;;;;5092573;28;20933;-48
2022/06/30 04:57:58;;;;;;;9.13;7.27;;;24.60;53.30;;;;;;5092514;28;20512;-48
2022/06/30 05:00:24;;;;;;;13.10;8.47;;;24.70;53.30;;;;;;5092369;28;20632;-48
2022/06/30 05:02:50;;;;;;;13.07;7.23;;;24.70;53.20;;;;;;5092158;28;20176;-48
2022/06/30 05:05:15;;;;;;;11.30;7.90;;;24.60;53.10;;;;;;5090830;28;20211;-47
2022/06/30 05:07:41;;;;;;;13.27;8.43;;;24.70;53.10;;;;;;5092054;28;20171;-49
2022/06/30 05:10:07;;;;;;;15.10;9.27;;;24.70;53.20;;;;;;5092372;28;20636;-49
2022/06/30 05:12:33;;;;;;;18.70;9.57;;;24.70;53.30;;;;;;5092504;28;20251;-50
2022/06/30 05:14:59;;;;;;;20.53;12.30;;;24.70;53.20;;;;;;5092320;28;20457;-49
2022/06/30 05:17:40;;;;;;;22.60;11.00;;;24.70;53.20;;;;;;5092062;28;20187;-49
2022/06/30 05:20:07;;;;;;;20.27;11.47;;;24.70;53.10;;;;;;5092177;28;20233;-48
2022/06/30 05:22:32;;;;;;;22.50;11.60;;;24.70;53.40;;;;;;5090913;28;20414;-50
2022/06/30 05:27:59;;;;;;;22.37;11.03;;;24.70;53.60;;;;;;5029569;28;20237;-48
2022/06/30 05:30:25;;;;;;;21.57;11.67;;;24.70;53.70;;;;;;5078738;28;20417;-49
2022/06/30 05:32:51;;;;;;;27.70;12.13;;;24.70;53.70;;;;;;5091959;28;20588;-48
2022/06/30 05:35:16;;;;;;;17.33;10.57;;;24.80;53.60;;;;;;5092104;28;20195;-48
2022/06/30 05:37:42;;;;;;;23.67;13.37;;;24.80;53.50;;;;;;5092153;28;20208;-51
2022/06/30 05:40:09;;;;;;;24.03;13.10;;;24.90;53.60;;;;;;5091928;28;20198;-50
2022/06/30 05:42:35;;;;;;;25.47;13.20;;;25.00;53.50;;;;;;5092594;28;20410;-47
2022/06/30 05:45:01;;;;;;;17.63;12.20;;;25.00;53.40;;;;;;5092592;28;20426;-48
2022/06/30 05:47:26;;;;;;;20.17;11.13;;;25.00;53.30;;;;;;5092724;28;20254;-48
2022/06/30 05:49:52;;;;;;;12.83;9.67;;;25.10;53.30;;;;;;5091856;28;20433;-49
2022/06/30 05:52:18;;;;;;;17.13;11.10;;;25.10;53.20;;;;;;5091877;28;20164;-50
2022/06/30 05:54:44;;;;;;;23.73;12.17;;;25.10;53.10;;;;;;5091680;28;20418;-48
2022/06/30 05:57:10;;;;;;;19.37;12.10;;;25.20;53.20;;;;;;5091433;28;20176;-51
2022/06/30 05:59:36;;;;;;;16.73;10.03;;;25.20;53.10;;;;;;5091965;28;20206;-50
2022/06/30 06:02:02;;;;;;;15.30;9.90;;;25.20;53.00;;;;;;5091776;28;20406;-49
2022/06/30 06:04:27;;;;;;;18.03;12.30;;;25.30;52.90;;;;;;5092357;28;20217;-47
2022/06/30 06:06:53;;;;;;;20.40;12.03;;;25.40;52.90;;;;;;5095447;28;20871;-50
2022/06/30 06:09:19;;;;;;;17.00;10.13;;;25.40;52.70;;;;;;5095711;28;20689;-48
2022/06/30 06:11:45;;;;;;;18.50;12.13;;;25.50;52.60;;;;;;5095579;28;20180;-48
2022/06/30 06:14:11;;;;;;;17.53;10.83;;;25.50;52.40;;;;;;5096115;28;20483;-49
2022/06/30 06:16:37;;;;;;;19.60;12.07;;;25.60;52.40;;;;;;5095633;28;20406;-48
2022/06/30 06:19:03;;;;;;;14.23;10.20;;;25.60;52.40;;;;;;5095471;28;20207;-48
2022/06/30 06:21:29;;;;;;;19.73;12.10;;;25.70;52.30;;;;;;5095293;28;20430;-49
2022/06/30 06:23:55;;;;;;;17.20;10.93;;;25.70;52.20;;;;;;5095450;28;20418;-47
2022/06/30 06:26:21;;;;;;;19.37;10.87;;;25.80;52.00;;;;;;5094702;28;20587;-48
2022/06/30 06:31:32;;;;;;;16.57;11.63;;;26.00;52.40;;;;;;5095090;28;20179;-48
2022/06/30 06:33:58;;;;;;;16.70;11.30;;;26.00;52.00;;;;;;5095015;28;20459;-48
2022/06/30 06:36:24;;;;;;;22.63;13.30;;;26.10;52.20;;;;;;5095018;28;20434;-47
2022/06/30 06:38:49;;;;;;;26.67;13.37;;;26.20;52.10;;;;;;5094756;28;20210;-47
2022/06/30 06:41:15;;;;;;;19.03;12.10;;;26.20;51.90;;;;;;5094902;28;20180;-48
2022/06/30 06:43:41;;;;;;;21.23;12.87;;;26.20;51.80;;;;;;5094984;28;20652;-47
2022/06/30 06:46:07;;;;;;;19.43;12.03;;;26.20;52.00;;;;;;5094409;28;20571;-48
2022/06/30 06:48:33;;;;;;;19.70;12.23;;;26.30;52.00;;;;;;5094971;28;20405;-47
2022/06/30 06:50:59;;;;;;;27.20;14.33;;;26.30;52.10;;;;;;5094607;28;20648;-48
2022/06/30 06:53:25;;;;;;;23.90;14.03;;;26.40;52.00;;;;;;5094601;28;20168;-48
2022/06/30 06:55:50;;;;;;;17.00;11.07;;;26.40;52.10;;;;;;5094429;28;20520;-47
2022/06/30 06:58:16;;;;;;;23.57;13.30;;;26.40;52.10;;;;;;5094708;28;20180;-48
2022/06/30 07:00:42;;;;;;;21.93;13.70;;;26.60;52.00;;;;;;5094547;28;20259;-48
2022/06/30 07:03:08;;;;;;;21.90;13.10;;;26.60;51.80;;;;;;5094544;28;20221;-49
2022/06/30 07:05:33;;;;;;;16.47;11.60;;;26.70;51.70;;;;;;5093931;28;20988;-49
2022/06/30 07:08:00;;;;;;;18.63;11.27;;;26.70;51.60;;;;;;5094253;28;20184;-48
2022/06/30 07:10:28;;;;;;;21.20;12.50;;;26.70;51.60;;;;;;5094495;28;20200;-47
2022/06/30 07:12:54;;;;;;;20.73;12.80;;;26.80;51.30;;;;;;5094410;28;20398;-49
2022/06/30 07:15:23;;;;;;;22.47;13.80;;;26.80;51.20;;;;;;5093926;28;20430;-48
2022/06/30 07:17:50;;;;;;;27.67;13.97;;;26.70;50.90;;;;;;5093921;28;20410;-49
2022/06/30 07:20:16;;;;;;;20.00;14.13;;;26.70;50.90;;;;;;5094112;28;20410;-48
2022/06/30 07:22:42;;;;;;;22.63;13.57;;;26.70;51.00;;;;;;5094026;28;20460;-48
2022/06/30 07:25:08;;;;;;;18.33;12.63;;;26.70;51.00;;;;;;5093868;28;20477;-48
2022/06/30 07:27:34;;;;;;;15.80;11.70;;;26.70;51.10;;;;;;5094096;28;20403;-48
2022/06/30 07:30:00;;;;;;;20.17;11.90;;;26.70;51.10;;;;;;5094020;28;20398;-49
2022/06/30 07:32:26;;;;;;;19.40;14.10;;;26.80;51.10;;;;;;5093897;28;20877;-48
2022/06/30 07:34:52;;;;;;;22.43;13.73;;;26.80;51.00;;;;;;5093673;28;20418;-48
2022/06/30 07:37:18;;;;;;;20.07;13.90;;;26.70;50.80;;;;;;5093544;28;20409;-48
2022/06/30 07:39:44;;;;;;;35.80;14.67;;;26.70;50.90;;;;;;5093612;28;20740;-49
2022/06/30 07:42:09;;;;;;;21.00;13.33;;;26.70;50.80;;;;;;5092343;28;20172;-48
2022/06/30 07:44:35;;;;;;;19.80;13.03;;;26.70;50.70;;;;;;5093504;28;20246;-48
2022/06/30 07:47:01;;;;;;;24.90;14.63;;;26.70;50.90;;;;;;5093353;28;20196;-49
2022/06/30 07:49:27;;;;;;;19.87;14.60;;;26.80;50.90;;;;;;5093477;28;20592;-50
2022/06/30 07:51:53;;;;;;;23.17;14.53;;;26.90;50.80;;;;;;5093481;28;20168;-49
2022/06/30 07:54:19;;;;;;;18.83;13.87;;;26.90;50.90;;;;;;5093453;28;20409;-48
2022/06/30 07:56:45;;;;;;;24.40;14.30;;;27.00;51.50;;;;;;5093140;28;20475;-48
2022/06/30 07:59:11;;;;;;;20.37;14.83;;;27.10;51.40;;;;;;5093718;28;20459;-47
2022/06/30 08:01:37;;;;;;;19.40;11.90;;;27.20;51.30;;;;;;5093354;28;20406;-50
2022/06/30 08:04:03;;;;;;;28.67;17.30;;;27.30;51.10;;;;;;5093205;28;20489;-50
2022/06/30 08:06:29;;;;;;;20.40;13.80;;;27.30;50.80;;;;;;5093153;28;20215;-48
2022/06/30 08:08:55;;;;;;;23.23;14.87;;;27.40;50.70;;;;;;5093264;28;20871;-50
2022/06/30 08:11:20;;;;;;;27.80;14.90;;;27.50;50.40;;;;;;5093092;28;20406;-49
2022/06/30 08:13:47;;;;;;;26.37;15.50;;;27.60;50.30;;;;;;5093356;28;20485;-49
2022/06/30 08:16:15;;;;;;;28.00;17.00;;;27.70;50.10;;;;;;5092695;28;20567;-47
2022/06/30 08:18:42;;;;;;;20.87;14.77;;;27.80;49.90;;;;;;5092917;28;20409;-48
2022/06/30 08:21:09;;;;;;;19.53;14.07;;;28.00;50.40;;;;;;5092984;28;20480;-49
2022/06/30 08:23:35;;;;;;;18.60;13.17;;;28.20;49.90;;;;;;5092823;28;20410;-49
2022/06/30 08:26:01;;;;;;;20.90;14.70;;;28.30;49.50;;;;;;5092494;28;20462;-48
2022/06/30 08:28:27;;;;;;;27.30;13.77;;;28.50;49.10;;;;;;5092292;28;20825;-47
2022/06/30 08:30:53;;;;;;;24.63;15.13;;;28.60;49.00;;;;;;5092787;28;20489;-49
2022/06/30 08:33:19;;;;;;;18.90;12.70;;;28.60;47.80;;;;;;5092552;28;20398;-47
2022/06/30 08:35:45;;;;;;;22.70;15.70;;;28.60;47.80;;;;;;5092382;28;20434;-49
2022/06/30 08:38:11;;;;;;;20.93;14.80;;;28.70;48.10;;;;;;5092881;28;20406;-48
2022/06/30 08:43:27;;;;;;;16.47;13.10;;;29.00;48.40;;;;;;5092946;28;20463;-49
2022/06/30 08:45:54;;;;;;;16.80;12.10;;;29.00;48.00;;;;;;5092127;28;20445;-48
2022/06/30 08:48:20;;;;;;;20.80;16.03;;;29.00;48.40;;;;;;5092731;28;20413;-49
2022/06/30 08:50:48;;;;;;;18.20;13.90;;;29.00;48.40;;;;;;5092716;28;20489;-49
2022/06/30 08:53:16;;;;;;;18.40;13.50;;;29.10;48.30;;;;;;5092652;28;20778;-50
2022/06/30 08:55:43;;;;;;;17.73;13.40;;;29.10;48.80;;;;;;5092400;28;20428;-50
2022/06/30 08:58:09;;;;;;;20.70;15.73;;;29.20;47.90;;;;;;5092434;28;20398;-47
2022/06/30 09:00:37;;;;;;;19.40;13.73;;;29.30;47.50;;;;;;5092589;28;20436;-48
2022/06/30 09:03:04;;;;;;;20.80;15.33;;;29.40;47.40;;;;;;5092369;28;20445;-49
2022/06/30 09:05:31;;;;;;;19.20;13.67;;;29.50;46.50;;;;;;5091959;28;20463;-48
2022/06/30 09:07:57;;;;;;;17.77;14.27;;;29.60;44.40;;;;;;5092216;28;20398;-50
2022/06/30 09:10:25;;;;;;;18.20;13.30;;;29.60;45.40;;;;;;5092213;28;20402;-48
2022/06/30 09:13:02;;;;;;;22.40;14.37;;;29.60;45.30;;;;;;5092380;28;20441;-48
2022/06/30 09:15:32;;;;;;;19.97;14.20;;;29.80;45.80;;;;;;5092266;28;20425;-49
2022/06/30 09:18:00;;;;;;;18.87;14.53;;;29.90;45.40;;;;;;5092305;28;20403;-47
2022/06/30 09:20:34;;;;;;;22.93;13.83;;;30.00;46.00;;;;;;5092118;28;20410;-45
2022/06/30 09:23:00;;;;;;;16.47;12.83;;;30.20;44.80;;;;;;5090836;28;20988;-48
2022/06/30 09:25:30;;;;;;;19.67;13.40;;;30.20;45.30;;;;;;5091700;28;20548;-48
2022/06/30 09:27:56;;;;;;;17.93;13.87;;;30.20;45.50;;;;;;5092226;28;20796;-48
2022/06/30 09:30:24;;;;;;;17.87;12.03;;;30.30;45.60;;;;;;5092080;28;20410;-49
2022/06/30 09:32:54;;;;;;;16.80;13.40;;;30.20;45.40;;;;;;5092053;28;20408;-48
2022/06/30 09:35:24;;;;;;;21.73;12.50;;;30.20;45.20;;;;;;5096673;28;21027;-49
2022/06/30 09:38:03;;;;;;;16.80;12.80;;;30.20;45.40;;;;;;5095686;28;20412;-48
2022/06/30 09:40:38;;;;;;;13.00;9.87;;;30.20;45.60;;;;;;5097425;28;21085;-48
2022/06/30 09:43:05;;;;;;;16.87;11.70;;;30.20;46.20;;;;;;5097495;28;20397;-48
2022/06/30 09:45:36;;;;;;;16.80;12.90;;;30.20;45.40;;;;;;5095733;28;20507;-48
2022/06/30 09:48:02;;;;;;;16.53;12.53;;;30.30;44.70;;;;;;5096311;28;21137;-48
2022/06/30 09:50:28;;;;;;;19.00;12.90;;;30.30;44.70;;;;;;5095750;28;20905;-50
2022/06/30 09:53:13;;;;;;;12.90;9.70;;;30.20;44.90;;;;;;5095842;28;20757;-48
2022/06/30 09:55:45;;;;;;;15.23;11.40;;;30.20;44.70;;;;;;5095906;28;20532;-48
2022/06/30 09:58:34;;;;;;;15.23;10.57;;;30.10;44.40;;;;;;5096028;28;20497;-48
2022/06/30 10:01:00;;;;;;;16.30;12.00;;;29.90;43.90;;;;;;5096088;28;20404;-48
2022/06/30 10:03:25;;;;;;;14.40;10.80;;;29.80;44.10;;;;;;5095729;28;20405;-48
2022/06/30 10:06:11;;;;;;;13.73;10.67;;;29.70;44.30;;;;;;5095239;28;20512;-49
2022/06/30 10:08:38;;;;;;;17.07;13.07;;;29.60;44.60;;;;;;5095625;28;20940;-46
2022/06/30 10:11:05;;;;;;;20.17;13.60;;;29.60;44.90;;;;;;5095768;28;20410;-48
2022/06/30 10:13:38;;;;;;;16.37;11.70;;;29.60;44.90;;;;;;5095601;28;20407;-48
2022/06/30 10:16:06;;;;;;;18.90;12.37;;;29.60;44.90;;;;;;5095312;28;20509;-50
2022/06/30 10:18:38;;;;;;;15.90;12.57;;;29.60;45.40;;;;;;5095632;28;20428;-48
2022/06/30 10:21:04;;;;;;;16.07;12.57;;;29.70;45.70;;;;;;5095483;28;20405;-49
2022/06/30 10:23:31;;;;;;;19.83;13.60;;;29.80;45.90;;;;;;5095491;28;20920;-47
2022/06/30 10:25:57;;;;;;;19.93;11.67;;;29.90;45.70;;;;;;5094707;28;20209;-48
2022/06/30 10:28:26;;;;;;;14.33;11.43;;;30.10;45.20;;;;;;5095139;28;20402;-48
2022/06/30 10:30:54;;;;;;;13.20;11.47;;;30.30;45.20;;;;;;5095172;28;20826;-46
2022/06/30 10:33:28;;;;;;;18.17;11.90;;;30.50;45.00;;;;;;5095145;28;20471;-46
2022/06/30 10:36:01;;;;;;;17.00;12.70;;;30.60;43.10;;;;;;5094720;28;20747;-48
2022/06/30 10:38:45;;;;;;;16.73;12.33;;;30.70;43.20;;;;;;5093580;28;20424;-48
2022/06/30 10:41:17;;;;;;;15.83;12.53;;;30.80;42.00;;;;;;5094962;28;20390;-49
2022/06/30 10:44:04;;;;;;;13.67;12.07;;;30.90;42.70;;;;;;5095199;28;20408;-47
2022/06/30 10:46:35;;;;;;;14.10;10.40;;;30.90;42.60;;;;;;5094646;28;20453;-48
2022/06/30 10:49:09;;;;;;;12.30;9.13;;;30.90;42.10;;;;;;5094752;28;20913;-49
2022/06/30 10:51:35;;;;;;;14.30;11.83;;;30.90;42.50;;;;;;5094476;28;20465;-48
2022/06/30 10:54:01;;;;;;;19.20;10.97;;;30.90;41.70;;;;;;5094748;28;20402;-48
2022/06/30 10:56:48;;;;;;;14.07;11.07;;;30.90;42.20;;;;;;5095131;28;20433;-47
2022/06/30 10:59:14;;;;;;;13.57;9.80;;;31.10;43.00;;;;;;5094549;28;20736;-47
2022/06/30 11:02:15;;;;;;;13.97;10.90;;;31.20;42.40;;;;;;5094656;28;20398;-47
2022/06/30 11:04:49;;;;;;;13.23;10.73;;;31.30;41.70;;;;;;5094414;28;20474;-48
2022/06/30 11:07:23;;;;;;;12.67;9.70;;;31.40;40.20;;;;;;5094660;28;20481;-47
2022/06/30 11:09:52;;;;;;;13.63;12.13;;;31.50;40.20;;;;;;5096787;28;20421;-48
2022/06/30 11:12:37;;;;;;;16.63;11.00;;;31.60;40.80;;;;;;5094360;28;20438;-48
2022/06/30 11:15:03;;;;;;;13.60;11.17;;;31.70;40.20;;;;;;5094392;28;20438;-48
2022/06/30 11:17:30;;;;;;;13.67;10.83;;;31.80;40.30;;;;;;5093992;28;20398;-48
2022/06/30 11:20:12;;;;;;;13.90;10.97;;;31.80;40.90;;;;;;5094210;28;20920;-48
2022/06/30 11:22:39;;;;;;;14.00;11.40;;;32.00;40.10;;;;;;5094346;28;20454;-48
2022/06/30 11:28:14;;;;;;;11.53;9.83;;;32.00;41.20;;;;;;5093913;28;20939;-48
2022/06/30 11:30:40;;;;;;;14.00;10.80;;;32.00;39.20;;;;;;5094099;28;20410;-47
2022/06/30 11:33:07;;;;;;;12.17;10.43;;;31.90;39.00;;;;;;5094109;28;20477;-48
2022/06/30 11:35:33;;;;;;;14.93;10.67;;;32.00;39.70;;;;;;5093734;28;20425;-48
2022/06/30 11:37:59;;;;;;;17.40;10.70;;;32.00;40.10;;;;;;5094093;28;20415;-48
2022/06/30 11:40:24;;;;;;;11.80;9.90;;;32.00;40.20;;;;;;5094039;28;20774;-48
2022/06/30 11:42:53;;;;;;;15.30;12.23;;;31.90;38.60;;;;;;5093641;28;20597;-49
2022/06/30 11:45:21;;;;;;;11.70;9.40;;;31.90;38.90;;;;;;5093495;28;20202;-48
2022/06/30 11:48:05;;;;;;;13.50;11.67;;;32.10;39.70;;;;;;5093600;28;20417;-48
2022/06/30 11:50:31;;;;;;;11.60;10.37;;;32.20;40.60;;;;;;5093790;28;20449;-48
2022/06/30 11:52:58;;;;;;;13.80;9.80;;;32.40;40.50;;;;;;5093511;28;20429;-47
2022/06/30 11:55:26;;;;;;;13.70;9.93;;;32.40;39.60;;;;;;5093567;28;20204;-48
2022/06/30 11:57:53;;;;;;;13.30;10.00;;;32.40;39.40;;;;;;5093243;28;20406;-48
2022/06/30 12:00:27;;;;;;;11.60;9.90;;;32.50;40.00;;;;;;5093412;28;20497;-48
2022/06/30 12:02:55;;;;;;;14.53;9.67;;;32.50;40.20;;;;;;5092469;28;20417;-49
2022/06/30 12:05:23;;;;;;;8.63;7.67;;;32.50;39.30;;;;;;5093081;28;20813;-50
2022/06/30 12:07:50;;;;;;;13.47;10.07;;;32.40;38.90;;;;;;5092865;28;20422;-49
2022/06/30 12:10:18;;;;;;;10.90;8.90;;;32.20;38.60;;;;;;5093152;28;20929;-50
2022/06/30 12:12:45;;;;;;;12.70;9.93;;;32.00;38.90;;;;;;5093388;28;20840;-49
2022/06/30 12:15:15;;;;;;;10.70;9.03;;;31.90;38.10;;;;;;5092995;28;20897;-49
2022/06/30 12:17:52;;;;;;;8.20;7.40;;;31.80;39.00;;;;;;5092712;28;20417;-50
2022/06/30 12:20:20;;;;;;;11.60;8.87;;;31.80;39.90;;;;;;5092922;28;20400;-49
2022/06/30 12:22:49;;;;;;;9.80;8.60;;;31.80;39.50;;;;;;5093235;28;20432;-49
2022/06/30 12:25:15;;;;;;;9.67;8.60;;;32.00;40.10;;;;;;5092735;28;20438;-48
2022/06/30 12:27:44;;;;;;;12.53;9.10;;;32.20;40.00;;;;;;5091429;28;20406;-49
2022/06/30 12:30:18;;;;;;;10.10;8.57;;;32.50;40.10;;;;;;5092804;28;20406;-48
2022/06/30 12:32:53;;;;;;;14.73;8.37;;;32.90;39.00;;;;;;5092652;28;20398;-49
2022/06/30 12:35:22;;;;;;;12.43;11.13;;;33.00;39.30;;;;;;5092850;28;20432;-48
2022/06/30 12:37:48;;;;;;;12.60;10.73;;;33.10;38.70;;;;;;5092455;28;20410;-47
2022/06/30 12:40:16;;;;;;;11.60;10.20;;;33.00;39.30;;;;;;5092737;28;20409;-48
2022/06/30 12:42:53;;;;;;;12.47;10.13;;;32.90;38.20;;;;;;5092621;28;20186;-47
2022/06/30 12:45:56;;;;;;;11.00;9.87;;;32.70;38.70;;;;;;5092637;28;20437;-47
2022/06/30 12:48:51;;;;;;;13.30;11.20;;;32.40;39.20;;;;;;5092684;28;20485;-48
2022/06/30 12:51:28;;;;;;;12.93;11.13;;;32.20;39.80;;;;;;5092603;28;20410;-48
2022/06/30 12:54:01;;;;;;;13.10;11.47;;;32.00;40.10;;;;;;5092542;28;20408;-48
2022/06/30 12:56:27;;;;;;;11.73;10.50;;;32.00;40.60;;;;;;5092105;28;20483;-47
2022/06/30 12:59:03;;;;;;;14.43;11.60;;;31.90;39.90;;;;;;5092577;28;20459;-48
2022/06/30 13:01:47;;;;;;;13.03;11.10;;;31.90;39.50;;;;;;5092498;28;20414;-46